Time;durP1;ratioP1;P1;durP2;ratioP2;P2;SDS_P1;SDS_P2;PMS_P1;PMS_P2;Temp;Humidity;BMP_temperature;BMP_pressure;BME280_temperature;BME280_humidity;BME280_pressure;Samples;Min_cycle;Max_cycle;Signal;HPM_P1;HPM_P2
2022/10/17 00:01:02;;;;;;;;;;;14.10;90.70;;;;;;5025540;28;19952;-82
2022/10/17 00:03:28;;;;;;;;;;;14.10;90.70;;;;;;5010121;28;19913;-82
2022/10/17 00:05:53;;;;;;;;;;;14.10;90.80;;;;;;5022479;28;19918;-83
2022/10/17 00:08:18;;;;;;;;;;;14.10;90.70;;;;;;5007007;28;19921;-82
2022/10/17 00:10:44;;;;;;;;;;;14.10;90.60;;;;;;5017650;28;19922;-82
2022/10/17 00:13:10;;;;;;;;;;;14.10;90.60;;;;;;5005149;28;19913;-82
2022/10/17 00:15:36;;;;;;;;;;;14.00;90.70;;;;;;5021014;28;20387;-82
2022/10/17 00:18:01;;;;;;;;;;;14.00;90.60;;;;;;5006004;28;19924;-82
2022/10/17 00:20:29;;;;;;;;;;;14.00;90.80;;;;;;5018749;28;19913;-82
2022/10/17 00:22:55;;;;;;;;;;;14.00;90.80;;;;;;5004250;28;20024;-81
2022/10/17 00:25:20;;;;;;;;;;;14.00;90.70;;;;;;5023178;28;20007;-81
2022/10/17 00:27:45;;;;;;;;;;;14.00;90.60;;;;;;5009661;28;19921;-81
2022/10/17 00:30:12;;;;;;;;;;;13.90;90.70;;;;;;5021165;28;20269;-81
2022/10/17 00:32:38;;;;;;;;;;;13.90;90.80;;;;;;5005701;28;19913;-81
2022/10/17 00:35:04;;;;;;;;;;;13.90;90.60;;;;;;5025985;23;19938;-81
2022/10/17 00:37:29;;;;;;;;;;;13.90;90.90;;;;;;5017850;28;19913;-83
2022/10/17 00:39:55;;;;;;;;;;;13.80;90.90;;;;;;5021179;28;20006;-84
2022/10/17 00:42:21;;;;;;;;;;;13.80;91.10;;;;;;5016631;28;19933;-79
2022/10/17 00:44:46;;;;;;;;;;;14.00;91.10;;;;;;5016736;28;19992;-81
2022/10/17 00:47:17;;;;;;;;;;;14.00;91.20;;;;;;5035974;28;19917;-81
2022/10/17 00:49:42;;;;;;;;;;;14.00;91.30;;;;;;5038843;28;19924;-80
2022/10/17 00:52:10;;;;;;;;;;;13.90;91.30;;;;;;5040206;28;19917;-81
2022/10/17 00:54:38;;;;;;;;;;;14.00;91.30;;;;;;5038451;28;19916;-81
2022/10/17 00:57:04;;;;;;;;;;;13.90;91.20;;;;;;5043165;28;19917;-82
2022/10/17 00:59:32;;;;;;;;;;;13.90;91.20;;;;;;5032320;28;19920;-82
2022/10/17 01:02:05;;;;;;;;;;;13.90;91.40;;;;;;5035594;28;19921;-82
2022/10/17 01:04:31;;;;;;;;;;;13.90;91.60;;;;;;5042688;28;19910;-80
2022/10/17 01:06:56;;;;;;;;;;;14.00;91.80;;;;;;5066167;28;19897;-80
2022/10/17 01:09:23;;;;;;;;;;;14.00;91.90;;;;;;5058640;28;19920;-82
2022/10/17 01:11:59;;;;;;;;;;;14.10;92.20;;;;;;5039973;28;20411;-82
2022/10/17 01:14:34;;;;;;;;;;;14.10;92.50;;;;;;5042282;28;19984;-82
2022/10/17 01:17:25;;;;;;;;;;;14.20;92.70;;;;;;5043126;28;19917;-82
2022/10/17 01:20:10;;;;;;;;;;;14.40;92.80;;;;;;5032166;28;20016;-82
2022/10/17 01:22:39;;;;;;;;;;;14.40;92.90;;;;;;5036765;28;19925;-83
2022/10/17 01:25:14;;;;;;;;;;;14.50;93.00;;;;;;5039346;28;19927;-81
2022/10/17 01:27:39;;;;;;;;;;;14.60;93.10;;;;;;5042351;28;20395;-83
2022/10/17 01:30:14;;;;;;;;;;;14.90;93.40;;;;;;5037134;28;19955;-80
2022/10/17 01:32:51;;;;;;;;;;;15.00;93.40;;;;;;5035943;28;19912;-82
2022/10/17 01:35:26;;;;;;;;;;;15.10;93.30;;;;;;5042061;28;19979;-83
2022/10/17 01:37:57;;;;;;;;;;;15.10;93.20;;;;;;5043018;28;19944;-83
2022/10/17 01:40:32;;;;;;;;;;;15.10;93.20;;;;;;5048491;28;20000;-82
2022/10/17 01:43:00;;;;;;;;;;;15.20;93.20;;;;;;5037287;28;19923;-83
2022/10/17 01:45:30;;;;;;;;;;;15.30;93.30;;;;;;5044866;28;20005;-84
2022/10/17 01:47:57;;;;;;;;;;;15.30;93.30;;;;;;5034989;28;19917;-83
2022/10/17 01:50:24;;;;;;;;;;;15.30;93.20;;;;;;5034451;28;19920;-82
2022/10/17 01:52:52;;;;;;;;;;;15.40;93.10;;;;;;5033812;28;19927;-83
2022/10/17 01:55:19;;;;;;;;;;;15.40;93.20;;;;;;5040218;28;20302;-83
2022/10/17 01:57:48;;;;;;;;;;;15.40;93.10;;;;;;5043729;28;19921;-82
2022/10/17 02:00:16;;;;;;;;;;;15.50;93.20;;;;;;5034271;28;20433;-82
2022/10/17 02:02:43;;;;;;;;;;;15.50;93.10;;;;;;5036600;28;20334;-82
2022/10/17 02:05:09;;;;;;;;;;;15.50;93.00;;;;;;5031603;28;19924;-82
2022/10/17 02:07:35;;;;;;;;;;;15.60;92.90;;;;;;5031617;28;19921;-82
2022/10/17 02:10:01;;;;;;;;;;;15.60;92.70;;;;;;5035973;28;20003;-81
2022/10/17 02:12:36;;;;;;;;;;;15.70;92.60;;;;;;5033897;28;19920;-81
2022/10/17 02:15:28;;;;;;;;;;;15.70;92.60;;;;;;5033515;28;19914;-82
2022/10/17 02:18:04;;;;;;;;;;;15.80;92.60;;;;;;5022895;28;19917;-82
2022/10/17 02:20:30;;;;;;;;;;;15.80;92.30;;;;;;5024272;28;20405;-82
2022/10/17 02:22:58;;;;;;;;;;;15.80;92.10;;;;;;5029292;28;19921;-82
2022/10/17 02:25:31;;;;;;;;;;;15.90;91.90;;;;;;5034647;28;20002;-82
2022/10/17 02:28:03;;;;;;;;;;;15.90;91.90;;;;;;5036967;28;20275;-83
2022/10/17 02:30:42;;;;;;;;;;;15.90;91.90;;;;;;5044500;28;19917;-83
2022/10/17 02:33:33;;;;;;;;;;;16.00;91.70;;;;;;5045517;28;19921;-81
2022/10/17 02:36:01;;;;;;;;;;;15.90;91.70;;;;;;5031143;28;20047;-82
2022/10/17 02:38:27;;;;;;;;;;;15.90;91.70;;;;;;5035763;28;20144;-83
2022/10/17 02:40:53;;;;;;;;;;;15.90;91.70;;;;;;5030476;28;19934;-82
2022/10/17 02:43:20;;;;;;;;;;;15.90;91.70;;;;;;5033946;28;19913;-82
2022/10/17 02:45:46;;;;;;;;;;;15.90;91.60;;;;;;5035846;28;20562;-83
2022/10/17 02:48:16;;;;;;;;;;;16.00;91.40;;;;;;5034323;28;19924;-83
2022/10/17 02:50:47;;;;;;;;;;;15.90;91.50;;;;;;5031686;28;20415;-82
2022/10/17 02:53:15;;;;;;;;;;;15.80;91.60;;;;;;5047095;28;19999;-81
2022/10/17 02:55:50;;;;;;;;;;;15.80;91.70;;;;;;5030243;28;19921;-82
2022/10/17 02:58:18;;;;;;;;;;;15.80;91.60;;;;;;5035368;28;20011;-82
2022/10/17 03:00:44;;;;;;;;;;;15.80;91.60;;;;;;5029846;28;19962;-82
2022/10/17 03:03:23;;;;;;;;;;;15.90;91.50;;;;;;5026741;28;19921;-82
2022/10/17 03:05:49;;;;;;;;;;;15.80;91.50;;;;;;5049832;28;19975;-82
2022/10/17 03:08:15;;;;;;;;;;;15.80;91.50;;;;;;5030081;28;20616;-82
2022/10/17 03:10:40;;;;;;;;;;;15.80;91.70;;;;;;5034397;28;19956;-83
2022/10/17 03:13:05;;;;;;;;;;;15.80;91.60;;;;;;5031081;28;19913;-83
2022/10/17 03:15:31;;;;;;;;;;;16.00;91.60;;;;;;5030950;28;19916;-82
2022/10/17 03:17:56;;;;;;;;;;;16.10;91.30;;;;;;5027854;28;20007;-83
2022/10/17 03:20:22;;;;;;;;;;;16.10;90.90;;;;;;5034601;28;19960;-82
2022/10/17 03:22:47;;;;;;;;;;;16.10;90.70;;;;;;5038748;28;19921;-83
2022/10/17 03:25:13;;;;;;;;;;;16.10;90.90;;;;;;5035253;28;19920;-81
2022/10/17 03:27:38;;;;;;;;;;;16.20;90.70;;;;;;5043482;28;19913;-83
2022/10/17 03:30:04;;;;;;;;;;;16.20;90.50;;;;;;5029773;28;20358;-81
2022/10/17 03:32:31;;;;;;;;;;;16.10;90.40;;;;;;5032785;28;19921;-83
2022/10/17 03:34:57;;;;;;;;;;;16.10;90.50;;;;;;5038657;28;19913;-83
2022/10/17 03:37:22;;;;;;;;;;;16.20;90.40;;;;;;5040630;28;19922;-82
2022/10/17 03:39:48;;;;;;;;;;;16.10;90.20;;;;;;5040505;28;19929;-82
2022/10/17 03:42:13;;;;;;;;;;;16.10;90.20;;;;;;5030043;28;19920;-82
2022/10/17 03:44:38;;;;;;;;;;;16.10;90.30;;;;;;5043294;28;19912;-83
2022/10/17 03:47:04;;;;;;;;;;;16.20;90.30;;;;;;5037985;28;19913;-83
2022/10/17 03:49:29;;;;;;;;;;;16.20;90.10;;;;;;5034036;28;20054;-83
2022/10/17 03:51:55;;;;;;;;;;;16.20;90.10;;;;;;5046080;28;19960;-82
2022/10/17 03:54:20;;;;;;;;;;;16.10;90.10;;;;;;5031809;28;19913;-83
2022/10/17 03:56:46;;;;;;;;;;;16.10;90.20;;;;;;5044888;28;19925;-84
2022/10/17 03:59:11;;;;;;;;;;;16.10;90.20;;;;;;5042122;28;20272;-83
2022/10/17 04:01:37;;;;;;;;;;;16.10;90.20;;;;;;5038483;28;20351;-83
2022/10/17 04:04:02;;;;;;;;;;;16.10;90.20;;;;;;5034515;28;19959;-83
2022/10/17 04:06:28;;;;;;;;;;;16.20;90.00;;;;;;5059332;28;19997;-83
2022/10/17 04:08:53;;;;;;;;;;;16.20;89.80;;;;;;5059449;28;19963;-81
2022/10/17 04:11:20;;;;;;;;;;;16.20;89.90;;;;;;5044799;28;20008;-83
2022/10/17 04:13:45;;;;;;;;;;;16.20;89.70;;;;;;5043071;28;19912;-84
2022/10/17 04:16:12;;;;;;;;;;;16.30;89.70;;;;;;5038379;28;19924;-84
2022/10/17 04:18:38;;;;;;;;;;;16.30;89.50;;;;;;5044555;28;19956;-84
2022/10/17 04:21:04;;;;;;;;;;;16.30;89.40;;;;;;5038989;28;19964;-82
2022/10/17 04:23:30;;;;;;;;;;;16.30;89.30;;;;;;5033725;28;19971;-83
2022/10/17 04:25:56;;;;;;;;;;;16.30;89.50;;;;;;5036064;28;19918;-83
2022/10/17 04:28:21;;;;;;;;;;;16.30;89.40;;;;;;5037367;28;19956;-81
2022/10/17 04:30:47;;;;;;;;;;;16.40;89.10;;;;;;5034977;28;19956;-83
2022/10/17 04:33:12;;;;;;;;;;;16.40;89.20;;;;;;5033020;28;19928;-83
2022/10/17 04:35:38;;;;;;;;;;;16.50;88.70;;;;;;5035066;28;19932;-83
2022/10/17 04:38:03;;;;;;;;;;;16.50;88.70;;;;;;5034477;28;19921;-82
2022/10/17 04:40:28;;;;;;;;;;;16.50;88.60;;;;;;5031600;28;19913;-84
2022/10/17 04:42:54;;;;;;;;;;;16.50;88.60;;;;;;5036946;28;20406;-84
2022/10/17 04:45:19;;;;;;;;;;;16.50;88.40;;;;;;5035346;28;20385;-82
2022/10/17 04:47:45;;;;;;;;;;;16.60;88.30;;;;;;5035739;28;19953;-81
2022/10/17 04:50:10;;;;;;;;;;;16.50;88.40;;;;;;5040604;28;19921;-83
2022/10/17 04:52:36;;;;;;;;;;;16.60;88.30;;;;;;5045351;28;19924;-84
2022/10/17 04:55:02;;;;;;;;;;;16.60;88.10;;;;;;5035472;28;19934;-83
2022/10/17 04:57:27;;;;;;;;;;;16.70;87.70;;;;;;5034715;28;19913;-86
2022/10/17 04:59:53;;;;;;;;;;;16.70;87.80;;;;;;5039815;28;20385;-84
2022/10/17 05:02:18;;;;;;;;;;;16.70;87.70;;;;;;5038242;28;20114;-83
2022/10/17 05:04:44;;;;;;;;;;;16.70;87.60;;;;;;5043087;28;19919;-82
2022/10/17 05:07:09;;;;;;;;;;;16.60;87.80;;;;;;5038079;28;19917;-83
2022/10/17 05:09:35;;;;;;;;;;;16.70;87.70;;;;;;5035585;28;20026;-84
2022/10/17 05:12:00;;;;;;;;;;;16.60;87.70;;;;;;5037542;28;20374;-86
2022/10/17 05:14:26;;;;;;;;;;;16.60;87.70;;;;;;5058406;28;19913;-87
2022/10/17 05:16:54;;;;;;;;;;;16.60;87.60;;;;;;5037431;28;19944;-86
2022/10/17 05:19:28;;;;;;;;;;;16.60;87.70;;;;;;5037576;28;19913;-88
2022/10/17 05:21:53;;;;;;;;;;;16.60;87.70;;;;;;5043723;28;19913;-85
2022/10/17 05:24:29;;;;;;;;;;;16.80;87.30;;;;;;5052317;28;20046;-85
2022/10/17 05:27:06;;;;;;;;;;;16.80;87.10;;;;;;5039664;28;20332;-85
2022/10/17 05:29:40;;;;;;;;;;;16.90;86.80;;;;;;5037603;28;20398;-84
2022/10/17 05:32:08;;;;;;;;;;;17.00;86.70;;;;;;5059212;28;19917;-86
2022/10/17 05:34:39;;;;;;;;;;;16.80;86.80;;;;;;5036900;28;20158;-84
2022/10/17 05:37:04;;;;;;;;;;;16.80;86.80;;;;;;5038269;28;19917;-89
2022/10/17 05:39:30;;;;;;;;;;;16.90;86.70;;;;;;5035341;28;19936;-85
2022/10/17 05:41:55;;;;;;;;;;;16.90;86.40;;;;;;5044188;28;19917;-89
2022/10/17 05:44:21;;;;;;;;;;;17.00;86.20;;;;;;5048204;28;19917;-83
2022/10/17 05:46:49;;;;;;;;;;;17.00;86.20;;;;;;5045097;28;20409;-84
2022/10/17 05:49:15;;;;;;;;;;;17.00;86.30;;;;;;5037412;28;20340;-84
2022/10/17 05:51:40;;;;;;;;;;;17.00;86.20;;;;;;5057093;28;20000;-84
2022/10/17 05:54:06;;;;;;;;;;;17.10;85.80;;;;;;5053733;28;19924;-84
2022/10/17 05:56:32;;;;;;;;;;;17.10;85.70;;;;;;5053641;28;19923;-84
2022/10/17 05:58:57;;;;;;;;;;;17.10;85.40;;;;;;5052347;28;20019;-84
2022/10/17 06:01:23;;;;;;;;;;;17.10;85.40;;;;;;5044062;28;19909;-84
2022/10/17 06:03:48;;;;;;;;;;;17.20;85.10;;;;;;5053641;28;20043;-85
2022/10/17 06:06:14;;;;;;;;;;;17.20;85.20;;;;;;5042902;28;20375;-84
2022/10/17 06:08:40;;;;;;;;;;;17.20;85.00;;;;;;5062409;28;20000;-84
2022/10/17 06:11:05;;;;;;;;;;;17.30;84.90;;;;;;5049633;28;19920;-83
2022/10/17 06:13:31;;;;;;;;;;;17.30;84.70;;;;;;5054320;28;19913;-83
2022/10/17 06:15:56;;;;;;;;;;;17.40;84.70;;;;;;5066371;28;19920;-85
2022/10/17 06:18:22;;;;;;;;;;;17.40;84.30;;;;;;5062916;28;19909;-84
2022/10/17 06:20:47;;;;;;;;;;;17.40;84.30;;;;;;5060236;28;19967;-84
2022/10/17 06:23:13;;;;;;;;;;;17.50;83.90;;;;;;5059702;28;19913;-84
2022/10/17 06:25:38;;;;;;;;;;;17.60;83.60;;;;;;5062574;28;19919;-85
2022/10/17 06:28:04;;;;;;;;;;;17.60;83.60;;;;;;5059401;28;19955;-84
2022/10/17 06:30:29;;;;;;;;;;;17.50;84.00;;;;;;5057553;28;21448;-84
2022/10/17 06:32:55;;;;;;;;;;;17.40;84.20;;;;;;5058473;28;20386;-84
2022/10/17 06:35:21;;;;;;;;;;;17.40;84.40;;;;;;5059308;28;20341;-84
2022/10/17 06:37:46;;;;;;;;;;;17.40;84.20;;;;;;5075312;22;20490;-86
2022/10/17 06:40:13;;;;;;;;;;;17.40;84.30;;;;;;5031046;28;20408;-85
2022/10/17 06:42:39;;;;;;;;;;;17.50;84.00;;;;;;5031233;28;19909;-86
2022/10/17 06:45:05;;;;;;;;;;;17.40;84.30;;;;;;5030812;28;19916;-85
2022/10/17 06:47:31;;;;;;;;;;;17.40;84.50;;;;;;5032734;28;20367;-86
2022/10/17 06:49:56;;;;;;;;;;;17.40;84.30;;;;;;5030986;28;20295;-86
2022/10/17 06:52:22;;;;;;;;;;;17.30;84.50;;;;;;5031185;28;19915;-86
2022/10/17 06:54:50;;;;;;;;;;;17.30;84.50;;;;;;5038406;28;20012;-86
2022/10/17 06:57:16;;;;;;;;;;;17.40;84.30;;;;;;5031362;28;19939;-86
2022/10/17 06:59:41;;;;;;;;;;;17.50;84.30;;;;;;5029207;28;20375;-85
2022/10/17 07:02:08;;;;;;;;;;;17.30;84.70;;;;;;5011176;28;20347;-86
2022/10/17 07:04:33;;;;;;;;;;;17.30;84.80;;;;;;5024239;28;19914;-85
2022/10/17 07:07:01;;;;;;;;;;;17.30;84.90;;;;;;5031769;28;19909;-85
2022/10/17 07:09:27;;;;;;;;;;;17.30;85.00;;;;;;5019831;28;19948;-86
2022/10/17 07:11:53;;;;;;;;;;;17.30;85.00;;;;;;5039852;28;19913;-86
2022/10/17 07:14:18;;;;;;;;;;;17.30;84.90;;;;;;5024413;28;19909;-85
2022/10/17 07:16:44;;;;;;;;;;;17.40;85.00;;;;;;5025241;28;19913;-86
2022/10/17 07:19:09;;;;;;;;;;;17.50;84.90;;;;;;5032664;28;20290;-85
2022/10/17 07:21:35;;;;;;;;;;;17.30;85.50;;;;;;5031553;28;19913;-85
2022/10/17 07:24:00;;;;;;;;;;;17.40;85.60;;;;;;5024657;28;19917;-86
2022/10/17 07:26:26;;;;;;;;;;;17.40;85.40;;;;;;5023897;28;19980;-87
2022/10/17 07:28:53;;;;;;;;;;;17.30;85.70;;;;;;5030537;28;19923;-86
2022/10/17 07:31:20;;;;;;;;;;;17.20;86.00;;;;;;5019615;28;20020;-87
2022/10/17 07:33:45;;;;;;;;;;;17.30;86.20;;;;;;5030938;28;19925;-86
2022/10/17 07:36:13;;;;;;;;;;;17.20;86.20;;;;;;5031431;28;19920;-86
2022/10/17 07:38:39;;;;;;;;;;;17.30;85.90;;;;;;5026112;28;19923;-86
2022/10/17 07:41:06;;;;;;;;;;;17.50;85.40;;;;;;5012712;28;20012;-86
2022/10/17 07:43:32;;;;;;;;;;;17.50;85.20;;;;;;5027900;28;19921;-86
2022/10/17 07:45:57;;;;;;;;;;;17.60;84.70;;;;;;5031497;28;19913;-85
2022/10/17 07:48:23;;;;;;;;;;;17.70;84.60;;;;;;5030849;28;19967;-86
2022/10/17 07:50:49;;;;;;;;;;;17.70;84.40;;;;;;5027516;28;19909;-86
2022/10/17 07:53:15;;;;;;;;;;;17.60;84.90;;;;;;5047673;28;19909;-86
2022/10/17 07:55:41;;;;;;;;;;;17.70;84.90;;;;;;5030926;28;20666;-86
2022/10/17 07:58:07;;;;;;;;;;;17.80;84.60;;;;;;5029724;28;19913;-86
2022/10/17 08:00:32;;;;;;;;;;;17.90;84.40;;;;;;5030938;28;19909;-86
2022/10/17 08:02:58;;;;;;;;;;;18.00;83.80;;;;;;5027362;28;20506;-86
2022/10/17 08:05:23;;;;;;;;;;;18.10;83.90;;;;;;5022744;28;19953;-87
2022/10/17 08:07:49;;;;;;;;;;;18.10;82.90;;;;;;5016235;28;19948;-87
2022/10/17 08:10:14;;;;;;;;;;;18.10;82.90;;;;;;5030251;28;20291;-87
2022/10/17 08:12:40;;;;;;;;;;;18.10;83.10;;;;;;5030797;28;19909;-86
2022/10/17 08:15:06;;;;;;;;;;;18.10;82.90;;;;;;5035041;28;19981;-86
2022/10/17 08:17:33;;;;;;;;;;;18.20;82.60;;;;;;5036293;28;19909;-87
2022/10/17 08:19:58;;;;;;;;;;;18.10;83.10;;;;;;5043310;28;20007;-86
2022/10/17 08:22:24;;;;;;;;;;;18.10;82.90;;;;;;5031756;28;19944;-87
2022/10/17 08:24:49;;;;;;;;;;;18.20;82.50;;;;;;5051034;28;19909;-86
2022/10/17 08:27:20;;;;;;;;;;;18.10;83.00;;;;;;5034330;28;19909;-86
2022/10/17 08:29:47;;;;;;;;;;;18.10;82.90;;;;;;5033691;28;19909;-87
2022/10/17 08:32:19;;;;;;;;;;;18.20;82.60;;;;;;5034397;28;19924;-86
2022/10/17 08:34:44;;;;;;;;;;;18.40;81.70;;;;;;5035057;28;19916;-86
2022/10/17 08:37:12;;;;;;;;;;;18.50;81.20;;;;;;5052673;28;19914;-92
2022/10/17 08:39:37;;;;;;;;;;;18.60;80.80;;;;;;5065522;28;19968;-91
2022/10/17 08:42:09;;;;;;;;;;;18.80;80.30;;;;;;5044111;28;19921;-87
2022/10/17 08:44:37;;;;;;;;;;;18.80;80.60;;;;;;5029866;28;19971;-86
2022/10/17 08:47:04;;;;;;;;;;;18.80;80.30;;;;;;5013677;28;19959;-86
2022/10/17 08:49:41;;;;;;;;;;;18.80;80.60;;;;;;5026770;28;20058;-86
2022/10/17 08:52:13;;;;;;;;;;;18.90;80.20;;;;;;5030011;28;20414;-87
2022/10/17 08:54:45;;;;;;;;;;;19.00;80.10;;;;;;5021963;28;21661;-86
2022/10/17 08:57:13;;;;;;;;;;;18.90;80.40;;;;;;5032933;28;19951;-86
2022/10/17 08:59:38;;;;;;;;;;;19.00;79.50;;;;;;5033296;28;19909;-86
2022/10/17 09:02:33;;;;;;;;;;;19.10;79.40;;;;;;5034234;28;20286;-86
2022/10/17 09:05:22;;;;;;;;;;;19.20;78.90;;;;;;5035013;28;19909;-86
2022/10/17 09:08:10;;;;;;;;;;;19.40;78.00;;;;;;5031262;28;19955;-86
2022/10/17 09:10:54;;;;;;;;;;;19.50;78.10;;;;;;5023269;28;19952;-86
2022/10/17 09:13:25;;;;;;;;;;;19.60;77.50;;;;;;5016976;28;19913;-85
2022/10/17 09:16:00;;;;;;;;;;;19.70;77.20;;;;;;5031486;28;19913;-86
2022/10/17 09:18:34;;;;;;;;;;;19.70;77.60;;;;;;5033745;28;19910;-86
2022/10/17 09:21:20;;;;;;;;;;;19.70;77.50;;;;;;5034243;28;19960;-88
2022/10/17 09:23:48;;;;;;;;;;;19.80;77.30;;;;;;5023846;28;19921;-85
2022/10/17 09:26:14;;;;;;;;;;;19.80;77.20;;;;;;5033734;28;20326;-85
2022/10/17 09:28:40;;;;;;;;;;;19.90;76.50;;;;;;5033378;28;19920;-86
2022/10/17 09:31:26;;;;;;;;;;;19.90;76.70;;;;;;5033699;28;20417;-86
2022/10/17 09:33:53;;;;;;;;;;;20.00;75.90;;;;;;5021323;28;20000;-87
2022/10/17 09:36:24;;;;;;;;;;;20.10;75.30;;;;;;5045692;28;19917;-88
2022/10/17 09:38:51;;;;;;;;;;;20.20;75.70;;;;;;5027709;28;19986;-87
2022/10/17 09:41:21;;;;;;;;;;;20.20;75.60;;;;;;5033915;28;19917;-87
2022/10/17 09:43:47;;;;;;;;;;;20.40;74.90;;;;;;5032470;28;19944;-87
2022/10/17 09:46:23;;;;;;;;;;;20.50;74.90;;;;;;5032308;28;19980;-87
2022/10/17 09:49:00;;;;;;;;;;;20.60;74.70;;;;;;5027409;28;20007;-87
2022/10/17 09:51:25;;;;;;;;;;;20.70;73.80;;;;;;5026110;28;19913;-88
2022/10/17 09:53:54;;;;;;;;;;;21.00;73.80;;;;;;5032384;28;19909;-87
2022/10/17 09:56:20;;;;;;;;;;;21.00;73.30;;;;;;5049966;28;19924;-87
2022/10/17 09:58:53;;;;;;;;;;;20.90;72.60;;;;;;5031742;28;19909;-86
2022/10/17 10:01:23;;;;;;;;;;;20.80;73.40;;;;;;5032703;28;19937;-85
2022/10/17 10:04:07;;;;;;;;;;;20.80;73.30;;;;;;5028021;28;19960;-85
2022/10/17 10:06:32;;;;;;;;;;;20.90;73.20;;;;;;5032216;28;19929;-86
2022/10/17 10:08:58;;;;;;;;;;;20.90;73.80;;;;;;5028054;28;20342;-85
2022/10/17 10:11:44;;;;;;;;;;;20.90;73.70;;;;;;5031642;28;19913;-85
2022/10/17 10:14:18;;;;;;;;;;;20.80;73.80;;;;;;5026816;28;19913;-85
2022/10/17 10:16:45;;;;;;;;;;;20.60;74.10;;;;;;5024754;28;19929;-87
2022/10/17 10:19:30;;;;;;;;;;;20.60;74.90;;;;;;5028992;28;19913;-85
2022/10/17 10:21:58;;;;;;;;;;;20.50;74.50;;;;;;5023977;28;19961;-85
2022/10/17 10:24:25;;;;;;;;;;;20.50;74.90;;;;;;5028626;28;19921;-83
2022/10/17 10:26:53;;;;;;;;;;;20.50;74.70;;;;;;5025625;28;19921;-86
2022/10/17 10:29:30;;;;;;;;;;;20.50;74.90;;;;;;5022597;28;19913;-87
2022/10/17 10:32:25;;;;;;;;;;;20.60;74.50;;;;;;5025598;28;19913;-85
2022/10/17 10:34:54;;;;;;;;;;;20.60;74.60;;;;;;5015782;28;19963;-85
2022/10/17 10:37:24;;;;;;;;;;;20.60;73.40;;;;;;5021684;28;20337;-87
2022/10/17 10:39:58;;;;;;;;;;;20.60;73.60;;;;;;5026444;28;19920;-85
2022/10/17 10:42:23;;;;;;;;;;;20.50;74.30;;;;;;5032391;28;20004;-85
2022/10/17 10:44:49;;;;;;;;;;;20.60;74.10;;;;;;5033429;28;19959;-86
2022/10/17 10:47:17;;;;;;;;;;;20.60;73.90;;;;;;5025438;28;19918;-84
2022/10/17 10:49:43;;;;;;;;;;;20.50;74.60;;;;;;5026673;28;19920;-84
2022/10/17 10:52:13;;;;;;;;;;;20.60;73.80;;;;;;5030812;28;19913;-86
2022/10/17 10:54:42;;;;;;;;;;;20.50;74.60;;;;;;5029869;28;20401;-83
2022/10/17 10:57:11;;;;;;;;;;;20.60;74.00;;;;;;5027044;28;20386;-84
2022/10/17 10:59:37;;;;;;;;;;;20.50;74.20;;;;;;5024891;28;19921;-86
2022/10/17 11:02:18;;;;;;;;;;;20.60;74.20;;;;;;5026342;28;20363;-87
2022/10/17 11:04:46;;;;;;;;;;;20.60;74.00;;;;;;5044906;28;19925;-85
2022/10/17 11:07:11;;;;;;;;;;;20.60;74.10;;;;;;5025081;28;19996;-86
2022/10/17 11:09:43;;;;;;;;;;;20.60;74.20;;;;;;5029734;28;20442;-86
2022/10/17 11:12:09;;;;;;;;;;;20.60;74.00;;;;;;5029550;28;19937;-84
2022/10/17 11:14:41;;;;;;;;;;;20.60;74.30;;;;;;5036309;28;19913;-84
2022/10/17 11:17:24;;;;;;;;;;;20.60;74.00;;;;;;5033594;28;19920;-91
2022/10/17 11:19:55;;;;;;;;;;;20.60;74.10;;;;;;5026997;28;19913;-84
2022/10/17 11:22:30;;;;;;;;;;;20.70;73.20;;;;;;5047639;28;20309;-88
2022/10/17 11:24:58;;;;;;;;;;;20.70;73.40;;;;;;5036729;28;19916;-89
2022/10/17 11:27:24;;;;;;;;;;;20.80;73.50;;;;;;5034492;28;19921;-87
2022/10/17 11:29:50;;;;;;;;;;;20.60;73.50;;;;;;5032562;28;19916;-88
2022/10/17 11:32:15;;;;;;;;;;;20.60;73.40;;;;;;5032064;28;19913;-87
2022/10/17 11:34:44;;;;;;;;;;;20.60;73.70;;;;;;5033840;28;19919;-90
2022/10/17 11:37:15;;;;;;;;;;;20.70;73.60;;;;;;5025399;28;20395;-87
2022/10/17 11:39:50;;;;;;;;;;;20.80;73.50;;;;;;5030793;28;19913;-88
2022/10/17 11:42:28;;;;;;;;;;;20.80;73.00;;;;;;5032999;28;19920;-88
2022/10/17 11:44:59;;;;;;;;;;;21.00;72.70;;;;;;5018422;28;19936;-87
2022/10/17 11:47:50;;;;;;;;;;;21.00;72.60;;;;;;5024247;28;19913;-87
2022/10/17 11:50:15;;;;;;;;;;;21.00;72.90;;;;;;5021108;28;20043;-90
2022/10/17 11:52:53;;;;;;;;;;;21.00;73.10;;;;;;5028903;28;20011;-86
2022/10/17 11:55:26;;;;;;;;;;;21.10;73.40;;;;;;5023762;28;19909;-91
2022/10/17 11:58:14;;;;;;;;;;;21.20;73.20;;;;;;5039524;28;19901;-88
2022/10/17 12:03:31;;;;;;;;;;;20.80;75.40;;;;;;5041746;28;19956;-81
2022/10/17 12:06:05;;;;;;;;;;;20.80;76.00;;;;;;5042811;28;19917;-80
2022/10/17 12:08:50;;;;;;;;;;;21.00;74.10;;;;;;5043172;28;19913;-80
2022/10/17 12:11:18;;;;;;;;;;;21.00;74.70;;;;;;5033900;28;19936;-81
2022/10/17 12:13:44;;;;;;;;;;;21.00;74.00;;;;;;5032593;28;20036;-84
2022/10/17 12:16:18;;;;;;;;;;;21.10;74.30;;;;;;5037675;28;20281;-82
2022/10/17 12:18:48;;;;;;;;;;;21.10;74.10;;;;;;5038665;28;19920;-81
2022/10/17 12:21:13;;;;;;;;;;;21.20;73.10;;;;;;5038676;28;19936;-80
2022/10/17 12:23:40;;;;;;;;;;;21.10;73.10;;;;;;5040686;28;20389;-79
2022/10/17 12:26:09;;;;;;;;;;;21.20;73.20;;;;;;5040694;28;19948;-81
2022/10/17 12:28:43;;;;;;;;;;;21.00;73.30;;;;;;5033161;28;19921;-79
2022/10/17 12:31:16;;;;;;;;;;;21.10;73.70;;;;;;5030823;28;20382;-82
2022/10/17 12:33:49;;;;;;;;;;;21.00;73.80;;;;;;5030720;28;19924;-81
2022/10/17 12:36:21;;;;;;;;;;;21.10;74.20;;;;;;5028450;28;20582;-81
2022/10/17 12:38:51;;;;;;;;;;;21.00;74.70;;;;;;5029898;22;19926;-79
2022/10/17 12:41:36;;;;;;;;;;;21.00;74.40;;;;;;5022692;28;19914;-80
2022/10/17 12:44:22;;;;;;;;;;;21.10;74.70;;;;;;5008991;28;19914;-80
2022/10/17 12:46:54;;;;;;;;;;;21.10;74.10;;;;;;5017392;28;19917;-80
2022/10/17 12:49:38;;;;;;;;;;;21.00;75.20;;;;;;5012959;28;20285;-80
2022/10/17 12:52:23;;;;;;;;;;;21.00;75.60;;;;;;5019223;28;19917;-80
2022/10/17 12:55:11;;;;;;;;;;;20.80;76.40;;;;;;5015007;28;19914;-81
2022/10/17 12:57:58;;;;;;;;;;;20.80;76.50;;;;;;5014418;28;19914;-81
2022/10/17 13:00:31;;;;;;;;;;;21.00;76.40;;;;;;5030007;28;19929;-81
2022/10/17 13:03:02;;;;;;;;;;;20.90;76.60;;;;;;5011891;28;19933;-81
2022/10/17 13:05:29;;;;;;;;;;;20.80;76.50;;;;;;5028652;28;19909;-81
2022/10/17 13:07:56;;;;;;;;;;;20.60;76.60;;;;;;5025835;28;19918;-81
2022/10/17 13:10:24;;;;;;;;;;;20.60;76.70;;;;;;5028028;28;20342;-81
2022/10/17 13:12:52;;;;;;;;;;;20.60;76.80;;;;;;5020924;28;19909;-81
2022/10/17 13:15:18;;;;;;;;;;;20.60;76.60;;;;;;5033256;28;19945;-81
2022/10/17 13:17:44;;;;;;;;;;;20.70;76.80;;;;;;5024614;28;19924;-81
2022/10/17 13:20:22;;;;;;;;;;;20.60;76.60;;;;;;5024798;28;20004;-82
2022/10/17 13:22:47;;;;;;;;;;;20.50;77.60;;;;;;5016171;28;19960;-82
2022/10/17 13:25:14;;;;;;;;;;;20.50;77.30;;;;;;5018035;28;19914;-82
2022/10/17 13:27:40;;;;;;;;;;;20.40;78.00;;;;;;5022164;28;20004;-81
2022/10/17 13:30:23;;;;;;;;;;;20.50;77.80;;;;;;5015681;28;19948;-80
2022/10/17 13:32:48;;;;;;;;;;;20.50;77.90;;;;;;5034881;28;19917;-80
2022/10/17 13:35:18;;;;;;;;;;;20.50;78.10;;;;;;5031155;28;19920;-81
2022/10/17 13:37:45;;;;;;;;;;;20.50;77.80;;;;;;5035490;28;19995;-79
2022/10/17 13:40:18;;;;;;;;;;;20.50;78.10;;;;;;5029079;28;20549;-82
2022/10/17 13:42:44;;;;;;;;;;;20.60;78.10;;;;;;5029734;28;20016;-80
2022/10/17 13:45:29;;;;;;;;;;;20.50;78.00;;;;;;5021424;28;19914;-81
2022/10/17 13:47:56;;;;;;;;;;;20.60;78.80;;;;;;5024908;28;19968;-80
2022/10/17 13:50:24;;;;;;;;;;;20.60;77.30;;;;;;5026293;28;19989;-81
2022/10/17 13:53:05;;;;;;;;;;;20.50;78.50;;;;;;5008274;28;19914;-80
2022/10/17 13:55:30;;;;;;;;;;;20.50;78.60;;;;;;5017348;28;19933;-80
2022/10/17 13:58:07;;;;;;;;;;;20.50;79.20;;;;;;5029008;28;19913;-81
2022/10/17 14:00:33;;;;;;;;;;;20.40;79.40;;;;;;5029385;28;19921;-81
2022/10/17 14:02:58;;;;;;;;;;;20.30;79.80;;;;;;5022372;28;19914;-81
2022/10/17 14:05:24;;;;;;;;;;;20.20;79.90;;;;;;5011672;28;19936;-82
2022/10/17 14:07:51;;;;;;;;;;;20.20;80.60;;;;;;5009518;28;19916;-82
2022/10/17 14:10:19;;;;;;;;;;;20.10;80.70;;;;;;5019596;28;19967;-83
2022/10/17 14:12:45;;;;;;;;;;;20.10;80.70;;;;;;5006634;28;19964;-83
2022/10/17 14:15:13;;;;;;;;;;;20.10;81.00;;;;;;5007875;28;19964;-82
2022/10/17 14:17:39;;;;;;;;;;;20.10;80.80;;;;;;5003114;28;19914;-82
2022/10/17 14:20:06;;;;;;;;;;;20.10;81.20;;;;;;5015647;28;19920;-82
2022/10/17 14:22:33;;;;;;;;;;;20.00;81.20;;;;;;5020605;28;19913;-83
2022/10/17 14:24:59;;;;;;;;;;;20.10;81.50;;;;;;5034559;28;20489;-83
2022/10/17 14:27:30;;;;;;;;;;;20.00;81.50;;;;;;5023903;28;19909;-81
2022/10/17 14:29:59;;;;;;;;;;;20.00;81.60;;;;;;5018782;28;19957;-81